createdAt,value
2019-05-10T00:00:15.549Z,96814.23
2019-05-10T00:01:35.402Z,96814.14
2019-05-10T00:02:55.628Z,96821.52
2019-05-10T00:04:17.938Z,96824.55
2019-05-10T00:05:37.775Z,96816.41
2019-05-10T00:06:57.688Z,96821.90
2019-05-10T00:08:19.136Z,96816.11
2019-05-10T00:09:20.727Z,96814.40
2019-05-10T00:10:22.642Z,96814.40
2019-05-10T00:11:44.252Z,96813.49
2019-05-10T00:12:58.858Z,96811.91
2019-05-10T00:14:19.137Z,96811.23
2019-05-10T00:15:23.851Z,96824.62
2019-05-10T00:16:27.027Z,96819.73
2019-05-10T00:17:29.760Z,96819.73
2019-05-10T00:18:32.693Z,96818.86
2019-05-10T00:19:35.541Z,96819.19
2019-05-10T00:20:38.692Z,96819.19
2019-05-10T00:21:41.612Z,96820.31
2019-05-10T00:22:45.728Z,96814.08
2019-05-10T00:23:50.921Z,96819.98
2019-05-10T00:25:04.278Z,96818.50
2019-05-10T00:26:01.741Z,96818.50
2019-05-10T00:27:04.739Z,96821.25
2019-05-10T00:28:08.000Z,96825.42
2019-05-10T00:29:11.120Z,96823.54
2019-05-10T00:30:13.952Z,96823.54
2019-05-10T00:31:19.512Z,96819.92
2019-05-10T00:32:23.911Z,96822.63
2019-05-10T00:33:26.797Z,96822.63
2019-05-10T00:34:30.087Z,96827.69
2019-05-10T00:35:32.956Z,96826.45
2019-05-10T00:36:35.892Z,96823.34
2019-05-10T00:37:38.911Z,96823.34
2019-05-10T00:38:41.896Z,96818.16
2019-05-10T00:39:47.646Z,96819.72
2019-05-10T00:40:50.859Z,96827.41
2019-05-10T00:41:56.638Z,96828.64
2019-05-10T00:43:00.498Z,96830.87
2019-05-10T00:44:04.500Z,96828.88
2019-05-10T00:45:07.478Z,96833.37
2019-05-10T00:46:10.349Z,96833.37
2019-05-10T00:47:13.287Z,96826.58
2019-05-10T00:48:18.788Z,96829.65
2019-05-10T00:49:21.531Z,96818.36
2019-05-10T00:50:24.786Z,96829.87
2019-05-10T00:51:27.917Z,96823.92
2019-05-10T00:52:30.783Z,96824.34
2019-05-10T00:53:33.478Z,96824.34
2019-05-10T00:54:36.927Z,96826.30
2019-05-10T00:55:40.126Z,96824.75
2019-05-10T00:56:42.997Z,96823.84
2019-05-10T00:57:45.963Z,96825.42
2019-05-10T00:58:49.007Z,96817.61
2019-05-10T00:59:51.715Z,96817.61
2019-05-10T01:00:54.684Z,96828.81
2019-05-10T01:01:57.507Z,96828.81
2019-05-10T01:03:03.473Z,96830.07
2019-05-10T01:04:06.568Z,96828.16
2019-05-10T01:05:09.897Z,96834.39
2019-05-10T01:06:12.795Z,96834.39
2019-05-10T01:07:15.738Z,96824.54
2019-05-10T01:08:18.427Z,96824.54
2019-05-10T01:09:21.450Z,96833.38
2019-05-10T01:10:24.589Z,96825.89
2019-05-10T01:11:27.504Z,96817.00
2019-05-10T01:12:35.731Z,96828.59
2019-05-10T01:13:39.203Z,96825.02
2019-05-10T01:14:41.883Z,96830.46
2019-05-10T01:15:46.852Z,96827.77
2019-05-10T01:16:49.622Z,96826.84
2019-05-10T01:17:52.666Z,96826.84
2019-05-10T01:18:55.456Z,96819.08
2019-05-10T01:19:58.787Z,96819.08
2019-05-10T01:21:02.044Z,96820.19
2019-05-10T01:22:04.921Z,96834.00
2019-05-10T01:23:07.943Z,96833.89
2019-05-10T01:24:10.927Z,96826.64
2019-05-10T01:25:14.671Z,96830.70
2019-05-10T01:26:17.659Z,96826.64
2019-05-10T01:27:20.437Z,96826.64
2019-05-10T01:28:23.968Z,96833.88
2019-05-10T01:29:27.065Z,96833.88
2019-05-10T01:30:30.023Z,96837.70
2019-05-10T01:31:32.849Z,96835.45
2019-05-10T01:32:36.240Z,96838.94
2019-05-10T01:33:39.772Z,96833.86
2019-05-10T01:34:42.705Z,96836.13
2019-05-10T01:35:45.700Z,96829.81
2019-05-10T01:36:48.586Z,96838.50
2019-05-10T01:37:51.492Z,96825.16
2019-05-10T01:38:57.453Z,96836.82
2019-05-10T01:40:00.200Z,96838.07
2019-05-10T01:41:04.191Z,96838.07
2019-05-10T01:42:10.268Z,96842.52
2019-05-10T01:43:15.622Z,96838.44
2019-05-10T01:44:18.753Z,96842.94
2019-05-10T01:45:21.678Z,96842.94
2019-05-10T01:46:27.166Z,96845.45
2019-05-10T01:47:32.675Z,96843.75
2019-05-10T01:48:38.478Z,96848.30
2019-05-10T01:49:44.921Z,96846.23
2019-05-10T01:50:50.176Z,96845.47
2019-05-10T01:51:53.129Z,96843.88
2019-05-10T01:52:56.273Z,96843.88
2019-05-10T01:53:59.138Z,96848.72
2019-05-10T01:55:02.458Z,96848.72
2019-05-10T01:56:05.419Z,96842.30
2019-05-10T01:57:08.235Z,96845.47
2019-05-10T01:58:11.560Z,96846.14
2019-05-10T01:59:14.305Z,96850.80
2019-05-10T02:00:17.320Z,96843.90
2019-05-10T02:01:20.317Z,96848.53
2019-05-10T02:02:23.574Z,96852.81
2019-05-10T02:03:26.802Z,96852.50
2019-05-10T02:04:29.722Z,96857.34
2019-05-10T02:05:32.889Z,96849.91
2019-05-10T02:06:36.363Z,96857.47
2019-05-10T02:07:39.502Z,96844.84
2019-05-10T02:08:43.979Z,96855.77
2019-05-10T02:09:46.760Z,96855.77
2019-05-10T02:10:50.298Z,96850.03
2019-05-10T02:11:53.501Z,96847.55
2019-05-10T02:12:56.417Z,96852.63
2019-05-10T02:13:59.767Z,96852.63
2019-05-10T02:15:02.698Z,96851.94
2019-05-10T02:16:05.444Z,96859.76
2019-05-10T02:17:10.748Z,96848.42
2019-05-10T02:18:13.865Z,96863.45
2019-05-10T02:19:16.950Z,96853.07
2019-05-10T02:20:19.987Z,96853.07
2019-05-10T02:21:22.860Z,96858.61
2019-05-10T02:22:25.805Z,96860.20
2019-05-10T02:23:29.166Z,96858.15
2019-05-10T02:24:32.304Z,96865.04
2019-05-10T02:25:35.252Z,96867.17
2019-05-10T02:26:38.364Z,96868.45
2019-05-10T02:27:41.263Z,96874.41
2019-05-10T02:28:46.357Z,96876.69
2019-05-10T02:29:49.532Z,96876.69
2019-05-10T02:30:53.794Z,96872.62
2019-05-10T02:31:57.114Z,96877.93
2019-05-10T02:33:00.354Z,96871.27
2019-05-10T02:34:03.298Z,96875.87
2019-05-10T02:35:05.974Z,96875.87
2019-05-10T02:36:09.292Z,96880.52
2019-05-10T02:37:12.131Z,96879.94
2019-05-10T02:38:17.344Z,96878.70
2019-05-10T02:39:21.036Z,96879.40
2019-05-10T02:40:25.873Z,96877.81
2019-05-10T02:41:28.535Z,96873.98
2019-05-10T02:42:31.487Z,96872.73
2019-05-10T02:43:34.181Z,96871.16
2019-05-10T02:44:37.216Z,96873.63
2019-05-10T02:45:43.124Z,96876.23
2019-05-10T02:46:46.582Z,96870.92
2019-05-10T02:47:49.399Z,96873.98
2019-05-10T02:48:52.395Z,96872.51
2019-05-10T02:49:58.904Z,96874.20
2019-05-10T02:51:00.053Z,96874.20
2019-05-10T02:52:03.333Z,96878.47
2019-05-10T02:53:06.392Z,96878.94
2019-05-10T02:54:09.229Z,96882.88
2019-05-10T02:55:12.727Z,96885.59
2019-05-10T02:56:29.740Z,96884.58
2019-05-10T02:57:20.105Z,96882.77
2019-05-10T02:58:24.269Z,96885.16
2019-05-10T02:59:27.235Z,96890.13
2019-05-10T03:00:30.383Z,96886.52
2019-05-10T03:01:33.683Z,96887.98
2019-05-10T03:02:36.888Z,96887.98
2019-05-10T03:03:40.847Z,96886.63
2019-05-10T03:04:44.195Z,96883.00
2019-05-10T03:05:53.183Z,96891.48
2019-05-10T03:06:56.085Z,96898.14
2019-05-10T03:07:59.610Z,96892.26
2019-05-10T03:09:02.721Z,96897.67
2019-05-10T03:10:05.678Z,96897.67
2019-05-10T03:11:08.903Z,96900.52
2019-05-10T03:12:11.939Z,96905.38
2019-05-10T03:13:14.906Z,96894.77
2019-05-10T03:14:17.805Z,96904.78
2019-05-10T03:15:20.696Z,96902.43
2019-05-10T03:16:28.719Z,96902.43
2019-05-10T03:17:32.240Z,96905.15
2019-05-10T03:18:35.212Z,96900.39
2019-05-10T03:19:39.154Z,96900.39
2019-05-10T03:20:42.510Z,96906.50
2019-05-10T03:21:45.495Z,96907.51
2019-05-10T03:22:48.530Z,96906.16
2019-05-10T03:23:51.657Z,96904.35
2019-05-10T03:24:54.695Z,96910.43
2019-05-10T03:25:57.609Z,96906.59
2019-05-10T03:27:01.939Z,96906.59
2019-05-10T03:28:04.634Z,96910.31
2019-05-10T03:29:07.648Z,96910.31
2019-05-10T03:30:13.989Z,96915.86
2019-05-10T03:31:17.126Z,96915.86
2019-05-10T03:32:20.497Z,96910.89
2019-05-10T03:33:23.470Z,96917.88
2019-05-10T03:34:26.210Z,96917.88
2019-05-10T03:35:29.307Z,96918.47
2019-05-10T03:36:32.886Z,96923.53
2019-05-10T03:37:36.435Z,96923.53
2019-05-10T03:38:39.278Z,96928.16
2019-05-10T03:39:42.295Z,96928.16
2019-05-10T03:40:45.438Z,96929.87
2019-05-10T03:41:48.498Z,96927.05
2019-05-10T03:42:51.671Z,96935.08
2019-05-10T03:43:54.657Z,96935.08
2019-05-10T03:44:57.446Z,96928.64
2019-05-10T03:46:00.340Z,96928.41
2019-05-10T03:47:03.264Z,96937.56
2019-05-10T03:48:06.353Z,96942.17
2019-05-10T03:49:09.424Z,96940.05
2019-05-10T03:50:12.311Z,96936.86
2019-05-10T03:51:15.144Z,96936.86
2019-05-10T03:52:18.022Z,96932.27
2019-05-10T03:53:20.915Z,96935.17
2019-05-10T03:54:23.930Z,96943.31
2019-05-10T03:55:27.035Z,96943.31
2019-05-10T03:56:30.193Z,96938.00
2019-05-10T03:57:33.030Z,96937.11
2019-05-10T03:58:36.614Z,96928.08
2019-05-10T03:59:39.482Z,96939.25
2019-05-10T04:00:42.588Z,96934.75
2019-05-10T04:01:45.718Z,96940.05
2019-05-10T04:02:48.864Z,96939.24
2019-05-10T04:03:51.710Z,96945.01
2019-05-10T04:04:55.228Z,96945.93
2019-05-10T04:05:59.266Z,96944.77
2019-05-10T04:07:02.736Z,96944.77
2019-05-10T04:08:06.276Z,96937.09
2019-05-10T04:09:09.314Z,96938.58
2019-05-10T04:10:12.251Z,96942.41
2019-05-10T04:11:15.312Z,96946.04
2019-05-10T04:12:18.180Z,96943.42
2019-05-10T04:13:21.219Z,96940.05
2019-05-10T04:14:24.331Z,96940.05
2019-05-10T04:15:27.888Z,96940.16
2019-05-10T04:16:30.719Z,96945.81
2019-05-10T04:17:33.772Z,96945.81
2019-05-10T04:18:36.589Z,96945.23
2019-05-10T04:19:39.835Z,96942.98
2019-05-10T04:20:43.135Z,96947.17
2019-05-10T04:21:46.139Z,96948.73
2019-05-10T04:22:51.232Z,96945.59
2019-05-10T04:23:54.247Z,96945.25
2019-05-10T04:24:57.118Z,96952.14
2019-05-10T04:26:00.240Z,96952.14
2019-05-10T04:27:03.780Z,96952.70
2019-05-10T04:28:06.890Z,96952.70
2019-05-10T04:29:09.747Z,96954.84
2019-05-10T04:30:12.794Z,96955.53
2019-05-10T04:31:15.702Z,96949.98
2019-05-10T04:32:18.749Z,96953.70
2019-05-10T04:33:22.050Z,96959.00
2019-05-10T04:34:25.082Z,96947.70
2019-05-10T04:35:29.857Z,96950.77
2019-05-10T04:36:32.881Z,96955.83
2019-05-10T04:37:35.776Z,96955.83
2019-05-10T04:38:42.618Z,96958.89
2019-05-10T04:39:45.940Z,96956.64
2019-05-10T04:40:48.995Z,96959.91
2019-05-10T04:41:51.856Z,96959.91
2019-05-10T04:42:54.984Z,96968.58
2019-05-10T04:43:57.866Z,96965.53
2019-05-10T04:45:00.911Z,96966.56
2019-05-10T04:46:04.070Z,96966.56
2019-05-10T04:47:07.177Z,96969.59
2019-05-10T04:48:10.007Z,96972.41
2019-05-10T04:49:13.022Z,96979.89
2019-05-10T04:50:16.302Z,96979.89
2019-05-10T04:51:19.326Z,96977.73
2019-05-10T04:52:25.503Z,96983.38
2019-05-10T04:53:30.842Z,96976.06
2019-05-10T04:54:33.707Z,96979.66
2019-05-10T04:55:37.196Z,96979.31
2019-05-10T04:56:40.115Z,96979.67
2019-05-10T04:57:50.456Z,96978.21
2019-05-10T04:58:47.631Z,96973.57
2019-05-10T04:59:50.734Z,96978.34
2019-05-10T05:00:53.589Z,96979.09
2019-05-10T05:01:56.671Z,96979.09
2019-05-10T05:02:59.920Z,96983.16
2019-05-10T05:04:03.058Z,96986.56
2019-05-10T05:05:05.993Z,96989.50
2019-05-10T05:06:09.493Z,96996.28
2019-05-10T05:07:12.352Z,96989.05
2019-05-10T05:08:15.364Z,96994.33
2019-05-10T05:09:18.293Z,96994.33
2019-05-10T05:10:21.668Z,96989.48
2019-05-10T05:11:24.557Z,96983.38
2019-05-10T05:12:27.566Z,96988.15
2019-05-10T05:13:30.450Z,96989.48
2019-05-10T05:14:33.472Z,96991.62
2019-05-10T05:15:40.057Z,96993.19
2019-05-10T05:16:43.476Z,96989.70
2019-05-10T05:17:46.620Z,96989.70
2019-05-10T05:18:52.357Z,96996.71
2019-05-10T05:19:55.243Z,96998.37
2019-05-10T05:21:00.347Z,96991.29
2019-05-10T05:22:22.204Z,97003.48
2019-05-10T05:23:25.079Z,96996.13
2019-05-10T05:24:30.168Z,96995.90
2019-05-10T05:25:35.117Z,97005.52
2019-05-10T05:26:40.872Z,97005.52
2019-05-10T05:27:43.752Z,97001.58
2019-05-10T05:28:47.094Z,97009.02
2019-05-10T05:29:49.955Z,97003.70
2019-05-10T05:43:36.176Z,97016.48
2019-05-10T05:44:40.863Z,97016.22
2019-05-10T05:45:43.766Z,97020.29
2019-05-10T05:46:47.174Z,97012.92
2019-05-10T05:47:50.643Z,97008.63
2019-05-10T05:48:54.129Z,97018.96
2019-05-10T05:49:57.474Z,97029.91
2019-05-10T05:51:01.519Z,97026.52
2019-05-10T05:52:04.416Z,97030.72
2019-05-10T05:53:10.071Z,97035.89
2019-05-10T05:54:20.662Z,97035.89
2019-05-10T05:55:30.711Z,97023.73
2019-05-10T05:56:31.933Z,97033.14
2019-05-10T05:57:35.018Z,97030.97
2019-05-10T05:58:44.830Z,97031.08
2019-05-10T05:59:49.151Z,97031.08
2019-05-10T06:00:55.021Z,97034.93
2019-05-10T06:02:00.853Z,97043.95
2019-05-10T06:03:02.631Z,97049.73
2019-05-10T06:04:06.444Z,97041.94
2019-05-10T06:05:10.310Z,97041.94
2019-05-10T06:06:21.455Z,97032.91
2019-05-10T06:07:24.758Z,97039.78
2019-05-10T06:08:30.116Z,97044.19
2019-05-10T06:09:40.103Z,97044.19
2019-05-10T06:11:54.270Z,97049.21
2019-05-10T06:13:01.049Z,97055.39
2019-05-10T06:14:10.338Z,97055.39
2019-05-10T06:15:09.020Z,97042.31
2019-05-10T06:16:14.837Z,97046.58
2019-05-10T06:17:17.732Z,97046.58
2019-05-10T06:18:21.552Z,97057.39
2019-05-10T06:19:29.336Z,97053.80
2019-05-10T06:20:29.528Z,97058.87
2019-05-10T06:21:32.821Z,97056.27
2019-05-10T06:22:38.063Z,97056.27
2019-05-10T06:23:41.355Z,97052.34
2019-05-10T06:24:46.610Z,97066.64
2019-05-10T06:25:49.458Z,97049.60
2019-05-10T06:26:58.291Z,97058.41
2019-05-10T06:28:03.510Z,97055.83
2019-05-10T06:29:16.327Z,97055.46
2019-05-10T06:30:13.685Z,97055.46
2019-05-10T06:31:19.626Z,97064.77
2019-05-10T06:32:22.687Z,97068.52
2019-05-10T06:33:26.629Z,97066.36
2019-05-10T06:34:31.810Z,97066.36
2019-05-10T06:35:34.940Z,97070.21
2019-05-10T06:36:38.706Z,97073.63
2019-05-10T06:37:42.054Z,97065.05
2019-05-10T06:38:45.149Z,97069.25
2019-05-10T06:39:50.379Z,97077.17
2019-05-10T06:40:55.952Z,97082.91
2019-05-10T06:41:58.862Z,97076.26
2019-05-10T06:43:06.901Z,97076.26
2019-05-10T06:44:08.934Z,97071.28
2019-05-10T06:45:14.628Z,97073.13
2019-05-10T06:46:16.224Z,97079.44
2019-05-10T06:47:21.796Z,97075.13
2019-05-10T06:48:33.194Z,97079.44
2019-05-10T06:49:33.217Z,97080.61
2019-05-10T06:50:39.476Z,97080.61
2019-05-10T06:51:42.787Z,97079.07
2019-05-10T06:52:45.418Z,97084.94
2019-05-10T06:53:52.579Z,97081.89
2019-05-10T06:54:53.039Z,97086.39
2019-05-10T06:55:58.690Z,97087.41
2019-05-10T06:57:04.074Z,97093.30
2019-05-10T06:58:09.881Z,97093.30
2019-05-10T06:59:14.113Z,97090.62
2019-05-10T07:00:19.890Z,97084.63
2019-05-10T07:01:23.085Z,97082.14
2019-05-10T07:02:31.847Z,97074.12
2019-05-10T07:03:30.849Z,97091.97
2019-05-10T07:04:37.935Z,97094.23
2019-05-10T07:05:41.756Z,97097.97
2019-05-10T07:06:45.167Z,97096.19
2019-05-10T07:07:50.083Z,97097.86
2019-05-10T07:08:57.888Z,97097.86
2019-05-10T07:10:08.667Z,97110.30
2019-05-10T07:11:02.063Z,97104.44
2019-05-10T07:12:09.266Z,97105.58
2019-05-10T07:13:11.660Z,97110.91
2019-05-10T07:14:15.016Z,97110.91
2019-05-10T07:15:18.201Z,97109.75
2019-05-10T07:16:24.381Z,97110.91
2019-05-10T07:17:28.294Z,97110.91
2019-05-10T07:18:31.148Z,97106.47
2019-05-10T07:19:35.033Z,97117.78
2019-05-10T07:20:38.951Z,97120.02
2019-05-10T07:21:50.669Z,97115.74
2019-05-10T07:22:49.255Z,97113.01
2019-05-10T07:23:52.445Z,97125.75
2019-05-10T07:25:04.168Z,97124.63
2019-05-10T07:26:04.579Z,97124.87
2019-05-10T07:27:08.156Z,97117.94
2019-05-10T07:28:17.655Z,97127.92
2019-05-10T07:29:29.491Z,97119.59
2019-05-10T07:30:28.386Z,97124.61
2019-05-10T07:31:34.199Z,97124.61
2019-05-10T07:32:37.809Z,97124.77
2019-05-10T07:33:42.823Z,97122.52
2019-05-10T07:35:00.803Z,97131.20
2019-05-10T07:36:01.973Z,97136.39
2019-05-10T07:37:07.736Z,97133.00
2019-05-10T07:38:11.279Z,97127.58
2019-05-10T07:39:15.947Z,97127.58
2019-05-10T07:40:18.783Z,97134.83
2019-05-10T07:41:28.988Z,97130.52
2019-05-10T07:42:30.698Z,97134.91
2019-05-10T07:43:36.498Z,97134.91
2019-05-10T07:44:41.411Z,97137.20
2019-05-10T07:45:45.526Z,97139.08
2019-05-10T07:46:54.333Z,97141.22
2019-05-10T07:47:53.365Z,97140.77
2019-05-10T07:48:56.301Z,97141.80
2019-05-10T07:50:03.891Z,97147.94
2019-05-10T07:51:06.694Z,97147.94
2019-05-10T07:52:11.411Z,97149.73
2019-05-10T07:53:16.215Z,97144.42
2019-05-10T07:54:21.518Z,97151.47
2019-05-10T07:55:28.670Z,97148.02
2019-05-10T07:56:31.954Z,97147.47
2019-05-10T07:57:35.332Z,97145.78
2019-05-10T07:58:43.414Z,97145.78
2019-05-10T07:59:50.663Z,97157.05
2019-05-10T08:00:49.885Z,97154.91
2019-05-10T08:01:52.876Z,97155.81
2019-05-10T08:03:07.622Z,97151.02
2019-05-10T08:04:01.305Z,97159.38
2019-05-10T08:05:09.555Z,97159.38
2019-05-10T08:06:09.560Z,97156.77
2019-05-10T08:07:18.903Z,97156.77
2019-05-10T08:08:22.730Z,97165.72
2019-05-10T08:09:26.073Z,97170.00
2019-05-10T08:10:30.545Z,97170.00
2019-05-10T08:11:34.194Z,97150.16
2019-05-10T08:12:41.329Z,97160.91
2019-05-10T08:13:41.855Z,97171.47
2019-05-10T08:14:49.345Z,97171.47
2019-05-10T08:15:49.677Z,97159.86
2019-05-10T08:16:58.375Z,97170.86
2019-05-10T08:17:58.522Z,97174.70
2019-05-10T08:19:02.448Z,97173.87
2019-05-10T08:20:08.991Z,97177.62
2019-05-10T08:21:21.869Z,97173.77
2019-05-10T08:22:17.922Z,97165.94
2019-05-10T08:23:23.902Z,97165.94
2019-05-10T08:24:25.518Z,97182.82
2019-05-10T08:25:35.436Z,97163.14
2019-05-10T08:26:33.245Z,97177.27
2019-05-10T08:27:36.101Z,97177.27
2019-05-10T08:28:43.865Z,97192.30
2019-05-10T08:29:43.751Z,97192.11
2019-05-10T08:30:53.606Z,97189.75
2019-05-10T08:31:55.410Z,97195.66
2019-05-10T08:33:00.178Z,97195.66
2019-05-10T08:34:02.297Z,97209.70
2019-05-10T08:35:16.471Z,97200.44
2019-05-10T08:36:16.321Z,97195.83
2019-05-10T08:37:30.767Z,97213.05
2019-05-10T08:38:28.289Z,97206.25
2019-05-10T08:39:43.321Z,97199.34
2019-05-10T08:40:39.269Z,97197.20
2019-05-10T08:41:45.831Z,97196.65
2019-05-10T08:42:54.393Z,97202.67
2019-05-10T08:43:55.458Z,97197.46
2019-05-10T08:45:03.604Z,97197.46
2019-05-10T08:46:03.185Z,97217.37
2019-05-10T08:47:07.616Z,97217.37
2019-05-10T08:48:12.763Z,97205.16
2019-05-10T08:49:21.973Z,97208.34
2019-05-10T08:50:43.259Z,97210.69
2019-05-10T08:51:25.263Z,97214.09
2019-05-10T08:52:31.734Z,97211.27
2019-05-10T08:53:37.238Z,97207.51
2019-05-10T08:54:42.309Z,97206.26
2019-05-10T08:55:45.392Z,97215.76
2019-05-10T08:56:52.964Z,97224.52
2019-05-10T08:57:57.506Z,97219.01
2019-05-10T08:59:03.880Z,97219.01
2019-05-10T09:00:08.773Z,97219.32
2019-05-10T09:01:25.924Z,97218.77
2019-05-10T09:02:23.055Z,97222.94
2019-05-10T09:03:34.409Z,97232.12
2019-05-10T09:04:43.670Z,97221.61
2019-05-10T09:05:43.276Z,97225.11
2019-05-10T09:06:55.363Z,97223.75
2019-05-10T09:07:53.231Z,97226.34
2019-05-10T09:09:01.678Z,97229.07
2019-05-10T09:10:02.975Z,97230.98
2019-05-10T09:11:08.593Z,97236.66
2019-05-10T09:12:12.478Z,97224.91
2019-05-10T09:13:18.046Z,97235.88
2019-05-10T09:14:23.997Z,97235.88
2019-05-10T09:15:27.765Z,97232.91
2019-05-10T09:16:39.246Z,97237.69
2019-05-10T09:17:35.382Z,97237.69
2019-05-10T09:18:46.638Z,97241.64
2019-05-10T09:19:44.259Z,97234.30
2019-05-10T09:20:47.412Z,97236.42
2019-05-10T09:21:54.845Z,97238.60
2019-05-10T09:23:08.520Z,97235.43
2019-05-10T09:24:12.656Z,97246.03
2019-05-10T09:25:15.578Z,97246.03
2019-05-10T09:26:18.523Z,97237.00
2019-05-10T09:27:29.228Z,97239.72
2019-05-10T09:28:28.710Z,97229.33
2019-05-10T09:29:37.249Z,97240.30
2019-05-10T09:30:53.194Z,97249.23
2019-05-10T09:31:45.890Z,97240.52
2019-05-10T09:32:46.749Z,97247.19
2019-05-10T09:33:54.029Z,97247.19
2019-05-10T09:34:59.734Z,97247.31
2019-05-10T09:36:02.970Z,97253.00
2019-05-10T09:37:16.121Z,97248.00
2019-05-10T09:38:13.668Z,97248.00
2019-05-10T09:39:21.503Z,97262.38
2019-05-10T09:40:22.059Z,97255.69
2019-05-10T09:41:36.147Z,97254.67
2019-05-10T09:42:39.977Z,97272.21
2019-05-10T09:43:41.766Z,97259.88
2019-05-10T09:44:46.062Z,97264.87
2019-05-10T09:45:53.542Z,97262.73
2019-05-10T09:47:01.947Z,97269.39
2019-05-10T09:48:08.253Z,97250.80
2019-05-10T09:49:15.728Z,97250.80
2019-05-10T09:50:13.250Z,97261.28
2019-05-10T09:51:22.463Z,97261.28
2019-05-10T09:52:20.868Z,97269.25
2019-05-10T09:53:27.476Z,97279.04
2019-05-10T09:54:33.235Z,97263.91
2019-05-10T09:55:40.662Z,97282.90
2019-05-10T09:56:52.020Z,97284.81
2019-05-10T09:57:54.196Z,97283.47
2019-05-10T09:59:00.392Z,97283.47
2019-05-10T10:00:07.380Z,97290.64
2019-05-10T10:01:17.794Z,97286.48
2019-05-10T10:02:18.947Z,97288.97
2019-05-10T10:03:42.407Z,97279.31
2019-05-10T10:04:40.344Z,97285.69
2019-05-10T10:05:48.072Z,97286.47
2019-05-10T10:06:52.706Z,97291.81
2019-05-10T10:07:57.706Z,97290.80
2019-05-10T10:09:01.190Z,97286.06
2019-05-10T10:10:07.358Z,97294.53
2019-05-10T10:11:15.657Z,97298.72
2019-05-10T10:12:17.499Z,97295.89
2019-05-10T10:13:36.893Z,97281.05
2019-05-10T10:14:28.309Z,97281.05
2019-05-10T10:15:34.366Z,97292.17
2019-05-10T10:16:37.326Z,97287.73
2019-05-10T10:17:42.525Z,97293.77
2019-05-10T10:18:47.650Z,97300.67
2019-05-10T10:19:50.262Z,97294.63
2019-05-10T10:20:53.390Z,97298.34
2019-05-10T10:21:57.706Z,97289.28
2019-05-10T10:23:00.540Z,97289.28
2019-05-10T10:24:12.606Z,97307.34
2019-05-10T10:25:10.635Z,97314.08
2019-05-10T10:26:18.564Z,97316.38
2019-05-10T10:27:18.293Z,97312.14
2019-05-10T10:28:22.683Z,97305.41
2019-05-10T10:29:28.646Z,97288.91
2019-05-10T10:43:01.939Z,97313.93
2019-05-10T10:44:05.484Z,97307.71
2019-05-10T10:45:13.152Z,97286.85
2019-05-10T10:46:17.662Z,97319.70
2019-05-10T10:47:22.876Z,97319.70
2019-05-10T10:48:28.280Z,97317.12
2019-05-10T10:49:37.651Z,97312.37
2019-05-10T10:50:44.181Z,97313.70
2019-05-10T10:51:48.041Z,97324.89
2019-05-10T10:52:54.045Z,97307.78
2019-05-10T10:53:58.295Z,97312.33
2019-05-10T10:55:05.539Z,97312.33
2019-05-10T10:56:07.690Z,97322.62
2019-05-10T10:57:11.776Z,97322.62
2019-05-10T10:58:18.505Z,97326.50
2019-05-10T10:59:23.650Z,97320.94
2019-05-10T11:00:28.927Z,97324.80
2019-05-10T11:01:46.113Z,97320.47
2019-05-10T11:02:36.313Z,97334.96
2019-05-10T11:03:39.375Z,97332.69
2019-05-10T11:04:46.607Z,97337.55
2019-05-10T11:05:49.009Z,97346.50
2019-05-10T11:07:10.026Z,97345.94
2019-05-10T11:08:03.885Z,97350.45
2019-05-10T11:09:06.682Z,97350.45
2019-05-10T11:10:17.994Z,97344.59
2019-05-10T11:11:14.151Z,97340.53
2019-05-10T11:12:21.092Z,97344.95
2019-05-10T11:13:41.454Z,97344.95
2019-05-10T11:14:39.926Z,97345.61
2019-05-10T11:15:36.903Z,97345.61
2019-05-10T11:16:46.591Z,97341.43
2019-05-10T11:17:47.360Z,97342.69
2019-05-10T11:18:51.906Z,97346.00
2019-05-10T11:20:00.265Z,97344.07
2019-05-10T11:21:05.059Z,97339.64
2019-05-10T11:22:11.550Z,97346.57
2019-05-10T11:23:16.316Z,97343.05
2019-05-10T11:24:22.901Z,97343.98
2019-05-10T11:25:28.365Z,97343.98
2019-05-10T11:26:37.105Z,97346.92
2019-05-10T11:27:41.561Z,97340.33
2019-05-10T11:28:44.950Z,97343.20
2019-05-10T11:29:54.878Z,97345.22
2019-05-10T11:30:55.043Z,97346.62
2019-05-10T11:32:12.286Z,97347.72
2019-05-10T11:33:03.200Z,97348.05
2019-05-10T11:34:06.619Z,97345.34
2019-05-10T11:35:11.895Z,97339.78
2019-05-10T11:36:16.594Z,97342.85
2019-05-10T11:37:31.067Z,97351.56
2019-05-10T11:38:24.400Z,97344.99
2019-05-10T11:39:27.238Z,97349.30
2019-05-10T11:40:35.231Z,97348.28
2019-05-10T11:41:40.863Z,97353.53
2019-05-10T11:42:47.503Z,97350.55
2019-05-10T11:43:49.822Z,97350.55
2019-05-10T11:44:54.498Z,97349.41
2019-05-10T11:45:57.428Z,97351.19
2019-05-10T11:47:01.540Z,97355.72
2019-05-10T11:48:04.554Z,97358.32
2019-05-10T11:49:10.801Z,97358.32
2019-05-10T11:50:27.624Z,97349.45
2019-05-10T11:51:21.057Z,97353.23
2019-05-10T11:52:34.812Z,97355.05
2019-05-10T11:53:32.046Z,97346.77
2019-05-10T11:54:34.982Z,97349.25
2019-05-10T11:55:41.136Z,97349.25
2019-05-10T11:56:43.090Z,97350.08
2019-05-10T11:57:56.574Z,97350.08
2019-05-10T11:58:55.863Z,97344.43
2019-05-10T11:59:58.980Z,97342.90
2019-05-10T12:01:12.856Z,97343.66
2019-05-10T12:02:10.577Z,97338.11
2019-05-10T12:04:32.996Z,97345.09
2019-05-10T12:06:31.947Z,97344.81
2019-05-10T12:07:43.356Z,97353.72
2019-05-10T12:08:42.878Z,97341.90
2019-05-10T12:09:53.469Z,97339.74
2019-05-10T12:10:54.441Z,97349.35
2019-05-10T12:11:56.549Z,97358.24
2019-05-10T12:13:11.163Z,97355.95
2019-05-10T12:14:04.956Z,97352.20
2019-05-10T12:15:08.099Z,97350.70
2019-05-10T12:16:16.106Z,97358.91
2019-05-10T12:17:15.779Z,97355.58
2019-05-10T12:18:26.630Z,97355.58
2019-05-10T12:21:44.797Z,97360.84
2019-05-10T12:22:51.571Z,97360.84
2019-05-10T12:23:56.191Z,97361.82
2019-05-10T12:25:27.151Z,97365.52
2019-05-10T12:26:04.654Z,97348.20
2019-05-10T12:26:19.108Z,97343.03
2019-05-10T12:26:50.542Z,97361.65
2019-05-10T12:26:50.609Z,97362.98
2019-05-10T12:27:21.987Z,97364.05
2019-05-10T12:28:24.474Z,97362.87
2019-05-10T12:29:22.674Z,97370.47
2019-05-10T12:30:29.416Z,97370.47
2019-05-10T12:31:32.611Z,97367.55
2019-05-10T12:32:55.788Z,97367.62
2019-05-10T12:33:50.432Z,97364.45
2019-05-10T12:34:56.494Z,97366.19
2019-05-10T12:35:57.786Z,97370.14
2019-05-10T12:37:03.840Z,97370.14
2019-05-10T12:38:07.773Z,97364.33
2019-05-10T12:39:18.501Z,97361.55
2019-05-10T12:40:25.945Z,97359.82
2019-05-10T12:41:32.039Z,97359.82
2019-05-10T12:42:34.865Z,97362.10
2019-05-10T12:43:43.654Z,97362.10
2019-05-10T12:44:48.212Z,97366.19
2019-05-10T12:45:53.216Z,97363.31
2019-05-10T12:46:56.475Z,97363.31
2019-05-10T12:48:01.294Z,97362.45
2019-05-10T12:49:05.814Z,97362.45
2019-05-10T12:50:08.866Z,97363.64
2019-05-10T12:51:15.716Z,97360.22
2019-05-10T12:52:16.873Z,97364.45
2019-05-10T12:53:21.459Z,97367.95
2019-05-10T12:54:25.531Z,97367.25
2019-05-10T12:55:30.062Z,97370.73
2019-05-10T12:56:35.050Z,97370.73
2019-05-10T12:57:43.144Z,97371.77
2019-05-10T12:58:45.192Z,97371.77
2019-05-10T12:59:54.182Z,97371.50
2019-05-10T13:01:01.049Z,97371.50
2019-05-10T13:02:10.563Z,97372.39
2019-05-10T13:03:31.732Z,97365.53
2019-05-10T13:04:40.011Z,97358.70
2019-05-10T13:05:51.447Z,97358.39